METAR Rapporter från flygplatser

 

ESTA - Ängelholm, Sweden
Distance from station: SSV 17km
Uppdaterad: 2019-05-26 06:50
Drizzle, Helmulet
Drizzle, Helmulet
 Vind från VSV
Vind: VSV 31 km/h
Temperatur: 10°C
Wind Chill: 7°C
Daggpunkt: 8°C
Luftfuktighet: 88%
Barometer: 1006 hPa
Summering: Drizzle
Clouds: Helmulet
Visibility: 6 km
Cloud details: Delvis molnigt 305 m
Övervägande molnigt 518 m
Helmulet 1554 m
2019/05/26 04:50 ESTA 260450Z AUTO 25017KT 6000 DZ SCT010/// BKN017/// OVC051/// 10/08 Q1006
ESMT - Halmstad, Sweden
Distance from station: N 26km
Uppdaterad: 2019-05-26 06:50
Lätt regn, Övervägande molnigt
Lätt regn, Övervägande molnigt
 Vind från VSV
Vind: VSV 28 km/h
Temperatur: 10°C
Wind Chill: 7°C
Daggpunkt: 8°C
Luftfuktighet: 88%
Barometer: 1005 hPa
Summering: Lätt regn
Clouds: Övervägande molnigt
Visibility: 9 km
Cloud details: Enstaka moln 244 m
Delvis molnigt 427 m
Övervägande molnigt 1006 m
2019/05/26 04:50 ESMT 260450Z AUTO 25015KT 9000 -RA FEW008/// SCT014/// BKN033/// 10/08 Q1005
 
ESTL - Ljungbyhed, Sweden
Distance from station: SSO 45km
Uppdaterad: 2019-05-26 06:50
Lätt regn, Enstaka moln
Lätt regn, Enstaka moln
 Vind från VSV
Vind: VSV 20 km/h
Temperatur: 10°C
Wind Chill: 7°C
Daggpunkt: 9°C
Luftfuktighet: 94%
Barometer: 1006 hPa
Summering: Lätt regn
Clouds: Enstaka moln
Visibility: 10 km
Cloud details: Enstaka moln 579 m
2019/05/26 04:50 ESTL 260450Z AUTO 24011KT 9999 -RA FEW019/// 10/09 Q1006 REDZ
EKCH - Copenhagen/Kastrup, Denmark
Distance from station: S 92km
Uppdaterad: 2019-05-26 06:50
Lätt regn, Helmulet
Lätt regn, Helmulet
 Vind från VSV
Vind: VSV 24 km/h
Temperatur: 10°C
Wind Chill: 7°C
Daggpunkt: 8°C
Luftfuktighet: 88%
Barometer: 1008 hPa
Summering: Lätt regn
Clouds: Helmulet
Visibility: 10 km
Cloud details: Enstaka moln 488 m
Helmulet 1707 m
2019/05/26 04:50 EKCH 260450Z AUTO 24013KT 9999 -RA FEW016/// OVC056/// 10/08 Q1008 TEMPO BKN014
 
ESMK - Kristianstad/Everöd, Sweden
Distance from station: SO 93km
Uppdaterad: 2019-05-26 06:50
Övervägande molnigt
Övervägande molnigt
 Vind från VSV
Vind: VSV 20 km/h
Temperatur: 10°C
Wind Chill: 7°C
Daggpunkt: 7°C
Luftfuktighet: 82%
Barometer: 1006 hPa
Clouds: Övervägande molnigt
Visibility: 10 km
Cloud details: Enstaka moln 823 m
Delvis molnigt 975 m
Övervägande molnigt 1128 m
2019/05/26 04:50 ESMK 260450Z AUTO 24011KT 200V270 9999 FEW027/// SCT032/// BKN037/// 10/07 Q1006
ESMS - Malmö/Sturup, Sweden
Distance from station: SSO 104km
Uppdaterad: 2019-05-26 06:50
Övervägande molnigt
Övervägande molnigt
 Vind från VSV
Vind: VSV 26 km/h
Temperatur: 11°C
Daggpunkt: 7°C
Luftfuktighet: 77%
Barometer: 1008 hPa
Clouds: Övervägande molnigt
Visibility: 10 km
Cloud details: Enstaka moln 518 m
Övervägande molnigt 1067 m
2019/05/26 04:50 ESMS 260450Z 25014KT 9999 FEW017 BKN035 11/07 Q1008
 
EKRK - Copenhagen/Roskilde, Denmark
Distance from station: SSV 108km
Uppdaterad: 2019-05-26 06:50
Lätt regn, Helmulet
Lätt regn, Helmulet
 Vind från SV
Vind: SV 20 km/h
Temperatur: 10°C
Wind Chill: 7°C
Daggpunkt: 8°C
Luftfuktighet: 88%
Barometer: 1008 hPa
Summering: Lätt regn
Clouds: Helmulet
Visibility: 10 km
Cloud details: Enstaka moln 549 m
Helmulet 1463 m
2019/05/26 04:50 EKRK 260450Z AUTO 23011KT 9999 -RA FEW018/// OVC048/// 10/08 Q1008
ESMX - Växjö/Kronoberg, Sweden
Distance from station: ONO 124km
Uppdaterad: 2019-05-26 06:50
Lätt regn, Helmulet
Lätt regn, Helmulet
 Vind från SV
Vind: SV 19 km/h
Temperatur: 8°C
Wind Chill: 4°C
Daggpunkt: 8°C
Luftfuktighet: 100%
Barometer: 1003 hPa
Summering: Lätt regn
Clouds: Helmulet
Visibility: 10 km
Cloud details: Övervägande molnigt 335 m
Övervägande molnigt 518 m
Helmulet 914 m
2019/05/26 04:50 ESMX 260450Z AUTO 23010KT 9999 -RA BKN011/// BKN017/// OVC030/// 08/08 Q1003 REDZ
 
EKAH - Tirstrup, Denmark
Distance from station: V 141km
Uppdaterad: 2019-05-26 06:50
Helmulet
Helmulet
 Vind från VSV
Vind: VSV 15 km/h
Temperatur: 10°C
Wind Chill: 8°C
Daggpunkt: 9°C
Luftfuktighet: 94%
Barometer: 1006 hPa
Clouds: Helmulet
Visibility: 10 km
Cloud details: Helmulet 305 m
2019/05/26 04:50 EKAH 260450Z AUTO 24008KT 190V280 9999NDV OVC010/// 10/09 Q1006
ESGG - Göteborg/Landvetter, Sweden
Distance from station: NNV 142km
Uppdaterad: 2019-05-26 06:50
Helmulet
Helmulet
 Vind från VSV
Vind: VSV 31 km/h
Temperatur: 8°C
Wind Chill: 3°C
Daggpunkt: 6°C
Luftfuktighet: 87%
Barometer: 1001 hPa
Clouds: Helmulet
Visibility: 10 km
Cloud details: Övervägande molnigt 274 m
Helmulet 366 m
2019/05/26 04:50 ESGG 260450Z 24017KT 9999 BKN009 OVC012 08/06 Q1001
 
ESDF - Ronneby, Sweden
Distance from station: O 147km
Uppdaterad: 2019-05-26 06:50
Lätt regn, Helmulet
Lätt regn, Helmulet
 Vind från VSV
Vind: VSV 15 km/h
Temperatur: 10°C
Wind Chill: 8°C
Daggpunkt: 7°C
Luftfuktighet: 82%
Barometer: 1005 hPa
Summering: Lätt regn
Clouds: Helmulet
Visibility: 10 km
Cloud details: Övervägande molnigt 671 m
Övervägande molnigt 1250 m
Helmulet 2682 m
2019/05/26 04:50 ESDF 260450Z AUTO 24008KT 190V260 9999 -RA BKN022/// BKN041/// OVC088/// 10/07 Q1005
ESGP - Göteborg/Säve, Sweden
Distance from station: NNV 161km
Uppdaterad: 2017-01-02 11:20
NOT Current
Klart
Klart
 Vind från calm
Vind: Vindstilla
Temperatur: -2°C
Daggpunkt: -4°C
Luftfuktighet: 86%
Barometer: 1012 hPa
Clouds: Klart
Visibility: 10 km
2017/01/02 10:20 ESGP 021020Z AUTO 00000KT 9999 NCD M02/M04 Q1012
 
ESGJ - Jönköping Airport, Sweden
Distance from station: NNO 164km
Uppdaterad: 2019-05-26 06:50
Drizzle
Drizzle
 Vind från SV
Vind: SV 24 km/h
Summering: Drizzle
Visibility: 10 km
2019/05/26 04:50 ESGJ 260450Z AUTO 23013KT 9999 DZ ///022 08/07 Q1000
EKAV - Avno, Denmark
Distance from station: SSV 168km
Uppdaterad: 2016-10-04 06:20
NOT Current
Klart
Klart
 
Barometer: 1039 hPa
Clouds: Klart
Visibility: 10 km
2016/10/04 04:20 EKAV 040420Z AUTO ///// 9999NDV NCD ///// Q1039
 
EKRN - Rönne, Denmark
Distance from station: SO 191km
Uppdaterad: 2019-05-26 06:50
Helmulet
Helmulet
 Vind från V
Vind: V 30 km/h
Temperatur: 11°C
Daggpunkt: 9°C
Luftfuktighet: 88%
Barometer: 1009 hPa
Clouds: Helmulet
Visibility: 10 km
Cloud details: Övervägande molnigt 1341 m
Helmulet 3353 m
2019/05/26 04:50 EKRN 260450Z AUTO 26016KT 9999 BKN044/// OVC110/// 11/09 Q1009
EKOD - Odense/Beldringe, Denmark
Distance from station: VSV 193km
Uppdaterad: 2019-05-25 16:50
NOT Current
Delvis molnigt
Delvis molnigt
 Vind från V
Vind: V 26 km/h
Temperatur: 15°C
Daggpunkt: 9°C
Luftfuktighet: 68%
Barometer: 1013 hPa
Clouds: Delvis molnigt
Visibility: 10 km
Cloud details: Delvis molnigt 914 m
2019/05/25 14:50 EKOD 251450Z 28014KT 9999 SCT030 15/09 Q1013
 
EKYT - AAlborg, Denmark
Distance from station: VNV 199km
Uppdaterad: 2019-05-26 06:50
Övervägande molnigt
Övervägande molnigt
 Vind från V
Vind: V 20 km/h
Temperatur: 9°C
Wind Chill: 6°C
Daggpunkt: 8°C
Luftfuktighet: 94%
Barometer: 1004 hPa
Clouds: Övervägande molnigt
Visibility: 10 km
Cloud details: Enstaka moln 579 m
Övervägande molnigt 1372 m
2019/05/26 04:50 EKYT 260450Z AUTO 26011KT 9999 FEW019/// BKN045/// 09/08 Q1004
EKSN - Sindal Airport, Denmark
Distance from station: NV 201km
Uppdaterad: 2019-05-24 13:50
NOT Current
Övervägande molnigt
Övervägande molnigt
 Vind från V
Vind: V 33 km/h
Temperatur: 12°C
Daggpunkt: 9°C
Luftfuktighet: 82%
Barometer: 1005 hPa
Clouds: Övervägande molnigt
Visibility: 10 km
Cloud details: Enstaka moln 610 m
Övervägande molnigt 1524 m
2019/05/24 11:50 EKSN 241150Z 26018KT 9999 FEW020 BKN050 12/09 Q1005
 
ESMQ - Kalmar, Sweden
Distance from station: O 211km
Uppdaterad: 2019-05-26 06:50
Light drizzle, Enstaka moln
Light drizzle, Enstaka moln
 Vind från SV
Vind: SV 19 km/h
Temperatur: 10°C
Wind Chill: 7°C
Daggpunkt: 7°C
Luftfuktighet: 82%
Barometer: 1004 hPa
Summering: Light Drizzle
Clouds: Enstaka moln
Visibility: 10 km
Cloud details: Enstaka moln 2560 m
2019/05/26 04:50 ESMQ 260450Z AUTO 23010KT 9999 -DZ FEW084/// 10/07 Q1004 RERA
ESGT - Trollhättan, Sweden
Distance from station: N 212km
Uppdaterad: 2019-05-26 06:50
Helmulet
Helmulet
 Vind från VSV
Vind: VSV 22 km/h
Temperatur: 10°C
Wind Chill: 7°C
Daggpunkt: 7°C
Luftfuktighet: 82%
Barometer: 999 hPa
Clouds: Helmulet
Visibility: 10 km
Cloud details: Övervägande molnigt 579 m
Helmulet 975 m
2019/05/26 04:50 ESGT 260450Z AUTO 24012KT 9999 BKN019/// OVC032/// 10/07 Q0999